Terminal Aerodrome Forecast
Issued by NWS

Home | Current Version | Previous Version | Text Only | Print | Product List | Glossary On
Versions: 1 2 3 4 5 6 7 8 9 10 11 12 13 14 15
000
FTAK31 PANC 271733
TAFADU
TAF
PADU 271733Z 2718/2818 15008KT P6SM VCSH SCT003 BKN015 BKN025
     FM272100 14010KT P6SM -SHRA BKN015 BKN025
      TEMPO 2722/2802 BKN008 OVC015
     FM280500 10010KT 4SM -RA BR SCT005 BKN015=

USA.gov is the U.S. government's official web portal to all federal, state and local government web resources and services.